Time;durP1;ratioP1;P1;durP2;ratioP2;P2;SDS_P1;SDS_P2;PMS_P1;PMS_P2;Temp;Humidity;BMP_temperature;BMP_pressure;BME280_temperature;BME280_humidity;BME280_pressure;Samples;Min_cycle;Max_cycle;Signal;HPM_P1;HPM_P2
2023/03/24 00:00:10;;;;;;;;;;;;;;;9.33;84.32;100210.53;4962759;28;20170;-73
2023/03/24 00:02:36;;;;;;;;;;;;;;;9.32;84.42;100206.25;4972684;28;19940;-74
2023/03/24 00:05:04;;;;;;;;;;;;;;;9.38;84.27;100207.81;4957237;28;19948;-75
2023/03/24 00:07:32;;;;;;;;;;;;;;;9.37;84.30;100200.88;4940387;28;20093;-76
2023/03/24 00:09:58;;;;;;;;;;;;;;;9.39;84.65;100193.38;4954254;28;19957;-77
2023/03/24 00:12:24;;;;;;;;;;;;;;;9.33;84.88;100183.78;4954635;28;19947;-74
2023/03/24 00:14:53;;;;;;;;;;;;;;;9.31;85.29;100180.59;4937517;28;19943;-73
2023/03/24 00:17:24;;;;;;;;;;;;;;;9.28;85.70;100183.84;4960675;28;19945;-73
2023/03/24 00:19:50;;;;;;;;;;;;;;;9.24;86.05;100182.78;4935948;28;19926;-73
2023/03/24 00:22:16;;;;;;;;;;;;;;;9.21;86.31;100175.28;4959344;28;19952;-74
2023/03/24 00:24:45;;;;;;;;;;;;;;;9.16;86.64;100178.81;4954817;28;20111;-74
2023/03/24 00:27:12;;;;;;;;;;;;;;;9.16;86.52;100178.81;4955866;28;19943;-73
2023/03/24 00:29:39;;;;;;;;;;;;;;;9.18;86.81;100173.19;4939530;28;19962;-72
2023/03/24 00:32:05;;;;;;;;;;;;;;;9.08;87.05;100158.00;4943046;28;19980;-73
2023/03/24 00:34:37;;;;;;;;;;;;;;;9.08;87.39;100163.34;4942559;28;19945;-73
2023/03/24 00:37:05;;;;;;;;;;;;;;;9.08;87.59;100157.19;4934092;28;19945;-71
2023/03/24 00:39:31;;;;;;;;;;;;;;;9.06;87.83;100156.66;4937588;28;19964;-73
2023/03/24 00:41:57;;;;;;;;;;;;;;;9.03;88.09;100148.13;4939537;28;19942;-73
2023/03/24 00:44:23;;;;;;;;;;;;;;;9.07;87.91;100143.03;4961897;28;19939;-73
2023/03/24 00:46:54;;;;;;;;;;;;;;;9.08;88.00;100143.81;4953343;28;19943;-73
2023/03/24 00:49:43;;;;;;;;;;;;;;;9.06;87.95;100143.31;4939490;28;19966;-73
2023/03/24 00:52:17;;;;;;;;;;;;;;;9.06;87.87;100137.97;4941966;28;20127;-71
2023/03/24 00:54:44;;;;;;;;;;;;;;;9.08;88.02;100141.16;4957398;28;20018;-72
2023/03/24 00:57:11;;;;;;;;;;;;;;;9.06;88.37;100128.09;4946181;28;19922;-72
2023/03/24 00:59:47;;;;;;;;;;;;;;;9.07;88.33;100119.00;4977118;28;19990;-71
2023/03/24 01:02:14;;;;;;;;;;;;;;;9.06;88.08;100127.28;4939628;28;20049;-73
2023/03/24 01:04:40;;;;;;;;;;;;;;;9.06;88.15;100116.59;4932799;28;20315;-73
2023/03/24 01:07:06;;;;;;;;;;;;;;;9.03;88.60;100112.63;4960035;28;19940;-74
2023/03/24 01:09:35;;;;;;;;;;;;;;;9.01;88.58;100112.09;4971741;28;19962;-73
2023/03/24 01:12:02;;;;;;;;;;;;;;;8.99;88.91;100111.56;4933601;28;19940;-73
2023/03/24 01:14:32;;;;;;;;;;;;;;;8.98;89.01;100097.41;4944777;28;20027;-74
2023/03/24 01:16:58;;;;;;;;;;;;;;;9.01;88.71;100096.06;4954581;28;20009;-72
2023/03/24 01:19:24;;;;;;;;;;;;;;;9.01;88.92;100094.19;4943170;28;19971;-73
2023/03/24 01:21:53;;;;;;;;;;;;;;;8.97;89.19;100082.47;4957318;28;19936;-73
2023/03/24 01:24:19;;;;;;;;;;;;;;;9.01;88.90;100088.88;4941872;28;20032;-73
2023/03/24 01:26:45;;;;;;;;;;;;;;;8.96;89.23;100080.88;4953254;28;20390;-73
2023/03/24 01:29:11;;;;;;;;;;;;;;;8.97;89.17;100076.31;4958117;28;19964;-73
2023/03/24 01:31:36;;;;;;;;;;;;;;;8.94;89.42;100067.00;4958685;28;20316;-72
2023/03/24 01:34:02;;;;;;;;;;;;;;;8.97;89.28;100068.31;4940117;28;19939;-71
2023/03/24 01:36:28;;;;;;;;;;;;;;;8.90;89.54;100060.59;4962773;28;19942;-76
2023/03/24 01:38:53;;;;;;;;;;;;;;;8.91;89.48;100050.72;4979417;28;20028;-74
2023/03/24 01:41:19;;;;;;;;;;;;;;;8.93;89.43;100048.56;4959628;28;19938;-73
2023/03/24 01:43:44;;;;;;;;;;;;;;;8.91;89.43;100050.72;4960609;28;19937;-72
2023/03/24 01:46:13;;;;;;;;;;;;;;;8.87;89.67;100046.97;4948419;28;19954;-72
2023/03/24 01:48:58;;;;;;;;;;;;;;;8.86;89.70;100043.50;4965595;28;19958;-71
2023/03/24 01:51:30;;;;;;;;;;;;;;;8.87;89.24;100033.63;4961519;28;19993;-72
2023/03/24 01:54:01;;;;;;;;;;;;;;;8.84;89.79;100024.31;4957049;28;19936;-73
2023/03/24 01:56:30;;;;;;;;;;;;;;;8.85;89.27;100023.22;4961984;28;20063;-72
2023/03/24 01:58:57;;;;;;;;;;;;;;;8.82;89.77;100015.00;4959094;28;19984;-71
2023/03/24 02:02:02;;;;;;;;;;;;;;;8.81;89.70;99998.19;4960788;28;19969;-73
2023/03/24 02:04:47;;;;;;;;;;;;;;;8.78;89.75;99996.03;4964381;28;19942;-73
2023/03/24 02:07:31;;;;;;;;;;;;;;;8.91;89.31;99987.41;4947864;28;20026;-71
2023/03/24 02:09:59;;;;;;;;;;;;;;;8.84;89.59;99986.94;4945938;28;19945;-72
2023/03/24 02:12:28;;;;;;;;;;;;;;;8.79;89.94;99978.94;4965993;28;20418;-73
2023/03/24 02:14:55;;;;;;;;;;;;;;;8.90;89.47;99975.16;4937534;28;19939;-74
2023/03/24 02:17:28;;;;;;;;;;;;;;;8.81;90.03;99973.34;4963725;28;19938;-73
2023/03/24 02:20:08;;;;;;;;;;;;;;;8.85;89.45;99964.50;4956207;28;19942;-73
2023/03/24 02:22:49;;;;;;;;;;;;;;;8.85;89.86;99956.47;4923527;28;19949;-72
2023/03/24 02:25:34;;;;;;;;;;;;;;;8.84;89.90;99960.22;4937812;28;19981;-72
2023/03/24 02:28:19;;;;;;;;;;;;;;;8.85;90.06;99948.47;4941418;28;19983;-72
2023/03/24 02:30:57;;;;;;;;;;;;;;;8.79;90.29;99952.25;4945625;28;19999;-71
2023/03/24 02:33:29;;;;;;;;;;;;;;;8.81;90.19;99944.78;4969325;28;19990;-72
2023/03/24 02:36:08;;;;;;;;;;;;;;;8.80;90.46;99937.81;4973484;28;19997;-72
2023/03/24 02:38:34;;;;;;;;;;;;;;;8.77;90.46;99933.03;4930411;28;19955;-73
2023/03/24 02:41:09;;;;;;;;;;;;;;;8.74;90.58;99922.94;4958545;28;19955;-72
2023/03/24 02:43:53;;;;;;;;;;;;;;;8.78;90.68;99918.63;4947311;28;19943;-72
2023/03/24 02:46:34;;;;;;;;;;;;;;;8.74;90.75;99918.38;4930942;28;19940;-73
2023/03/24 02:49:19;;;;;;;;;;;;;;;8.77;90.74;99914.34;4959573;28;19967;-72
2023/03/24 02:51:57;;;;;;;;;;;;;;;8.77;90.64;99901.00;4941713;28;19940;-72
2023/03/24 02:54:22;;;;;;;;;;;;;;;8.78;90.53;99907.94;4964616;28;20377;-72
2023/03/24 02:56:57;;;;;;;;;;;;;;;8.79;90.78;99895.38;4943756;28;20633;-71
2023/03/24 02:59:50;;;;;;;;;;;;;;;8.83;90.35;99883.09;4943987;28;19958;-72
2023/03/24 03:02:40;;;;;;;;;;;;;;;8.84;90.55;99884.69;4958715;28;19936;-72
2023/03/24 03:05:12;;;;;;;;;;;;;;;8.86;90.38;99877.19;4962052;28;19940;-72
2023/03/24 03:07:40;;;;;;;;;;;;;;;8.86;90.67;99869.16;4959676;28;19958;-70
2023/03/24 03:10:18;;;;;;;;;;;;;;;8.87;90.57;99876.09;4945451;28;19994;-72
2023/03/24 03:12:46;;;;;;;;;;;;;;;8.85;90.84;99859.56;4956377;28;19935;-72
2023/03/24 03:15:15;;;;;;;;;;;;;;;8.89;90.92;99858.75;4934876;28;19941;-72
2023/03/24 03:17:47;;;;;;;;;;;;;;;8.89;90.88;99853.41;4954123;28;19959;-71
2023/03/24 03:20:19;;;;;;;;;;;;;;;8.88;90.99;99846.47;4954834;28;19945;-74
2023/03/24 03:22:52;;;;;;;;;;;;;;;8.95;90.89;99838.13;4929495;28;20040;-72
2023/03/24 03:25:21;;;;;;;;;;;;;;;8.98;90.66;99827.69;4945930;28;20434;-72
2023/03/24 03:27:48;;;;;;;;;;;;;;;8.93;90.99;99825.03;4959872;28;19967;-72
2023/03/24 03:30:22;;;;;;;;;;;;;;;8.94;91.05;99815.97;4947040;28;20042;-73
2023/03/24 03:32:59;;;;;;;;;;;;;;;8.99;91.01;99804.44;4938532;28;19945;-73
2023/03/24 03:35:28;;;;;;;;;;;;;;;9.00;91.07;99798.81;4962805;28;19973;-73
2023/03/24 03:38:13;;;;;;;;;;;;;;;9.03;90.98;99803.59;4960053;28;19983;-72
2023/03/24 03:40:39;;;;;;;;;;;;;;;9.07;91.01;99790.47;4961869;28;19940;-72
2023/03/24 03:43:12;;;;;;;;;;;;;;;9.07;90.92;99792.34;4942993;28;20028;-72
2023/03/24 03:45:41;;;;;;;;;;;;;;;9.06;90.88;99788.06;4945366;28;20031;-72
2023/03/24 03:48:06;;;;;;;;;;;;;;;9.11;90.89;99772.00;4964001;28;20431;-70
2023/03/24 03:50:33;;;;;;;;;;;;;;;9.12;90.90;99776.28;4959170;28;20001;-71
2023/03/24 03:53:07;;;;;;;;;;;;;;;9.18;90.59;99773.25;4929816;28;19936;-71
2023/03/24 03:55:34;;;;;;;;;;;;;;;9.15;90.91;99770.38;4961859;28;19942;-72
2023/03/24 03:58:04;;;;;;;;;;;;;;;9.14;90.93;99766.09;4936688;28;20483;-72
2023/03/24 04:00:43;;;;;;;;;;;;;;;9.17;90.92;99755.66;4941705;28;19999;-74
2023/03/24 04:03:54;;;;;;;;;;;;;;;9.25;90.79;99767.59;4955796;28;19941;-73
2023/03/24 04:06:34;;;;;;;;;;;;;;;9.27;90.51;99757.41;4939920;28;19944;-73
2023/03/24 04:09:27;;;;;;;;;;;;;;;9.30;90.71;99759.50;4938767;28;20764;-73
2023/03/24 04:12:01;;;;;;;;;;;;;;;9.33;90.70;99758.94;4947099;28;19935;-73
2023/03/24 04:14:48;;;;;;;;;;;;;;;9.44;90.38;99751.59;4962903;28;20402;-72
2023/03/24 04:17:52;;;;;;;;;;;;;;;9.51;90.08;99760.06;4958486;28;20320;-74
2023/03/24 04:20:37;;;;;;;;;;;;;;;9.51;89.98;99750.16;4929922;28;19976;-74
2023/03/24 04:23:13;;;;;;;;;;;;;;;9.54;90.29;99748.78;4944278;28;20004;-72
2023/03/24 04:26:00;;;;;;;;;;;;;;;9.50;90.49;99731.75;4932880;28;19991;-72
2023/03/24 04:28:29;;;;;;;;;;;;;;;9.50;90.43;99737.91;4960709;28;19959;-72
2023/03/24 04:31:06;;;;;;;;;;;;;;;9.53;90.51;99737.31;4950467;28;19979;-72
2023/03/24 04:33:40;;;;;;;;;;;;;;;9.53;90.34;99725.81;4958406;28;19945;-73
2023/03/24 04:36:15;;;;;;;;;;;;;;;9.53;90.31;99726.63;4973970;28;19942;-73
2023/03/24 04:39:04;;;;;;;;;;;;;;;9.53;90.53;99729.28;4950552;28;19993;-73
2023/03/24 04:41:40;;;;;;;;;;;;;;;9.63;90.19;99731.06;4949681;28;20071;-72
2023/03/24 04:44:16;;;;;;;;;;;;;;;9.68;90.30;99732.84;4943873;28;19934;-72
2023/03/24 04:47:04;;;;;;;;;;;;;;;9.68;90.43;99717.59;4951564;28;19983;-73
2023/03/24 04:49:30;;;;;;;;;;;;;;;9.67;90.63;99709.88;4943581;28;19956;-72
2023/03/24 04:51:55;;;;;;;;;;;;;;;9.65;90.90;99710.16;4962520;28;19993;-73
2023/03/24 04:54:24;;;;;;;;;;;;;;;9.62;91.35;99712.59;4963420;28;20160;-73
2023/03/24 04:56:58;;;;;;;;;;;;;;;9.62;91.53;99708.09;4962078;28;19951;-72
2023/03/24 04:59:29;;;;;;;;;;;;;;;9.60;91.64;99707.56;4965808;28;20037;-72
2023/03/24 05:01:55;;;;;;;;;;;;;;;9.64;91.39;99703.22;4944164;28;19939;-74
2023/03/24 05:04:35;;;;;;;;;;;;;;;9.70;91.41;99696.72;4946266;28;19938;-73
2023/03/24 05:07:07;;;;;;;;;;;;;;;9.68;91.34;99690.06;4965822;28;20082;-73
2023/03/24 05:09:33;;;;;;;;;;;;;;;9.75;91.25;99693.16;4962239;28;20054;-73
2023/03/24 05:12:00;;;;;;;;;;;;;;;9.72;91.49;99683.88;4952328;28;20038;-73
2023/03/24 05:14:25;;;;;;;;;;;;;;;9.72;91.58;99691.88;4964995;28;20029;-72
2023/03/24 05:16:51;;;;;;;;;;;;;;;9.77;91.41;99683.00;4946121;28;19944;-73
2023/03/24 05:19:18;;;;;;;;;;;;;;;9.74;91.30;99680.91;4963133;28;20001;-75
2023/03/24 05:21:44;;;;;;;;;;;;;;;9.83;91.34;99681.84;4964399;28;19969;-73
2023/03/24 05:24:11;;;;;;;;;;;;;;;9.83;91.08;99676.50;4963589;28;19979;-73
2023/03/24 05:26:36;;;;;;;;;;;;;;;9.86;91.09;99678.59;4933859;28;19939;-73
2023/03/24 05:29:10;;;;;;;;;;;;;;;9.87;91.00;99682.84;4962871;28;19963;-73
2023/03/24 05:31:38;;;;;;;;;;;;;;;9.93;90.81;99675.53;4946558;28;19944;-73
2023/03/24 05:34:08;;;;;;;;;;;;;;;10.00;90.50;99673.28;4964540;28;20211;-72
2023/03/24 05:36:45;;;;;;;;;;;;;;;10.01;90.48;99675.66;4953158;28;19967;-73
2023/03/24 05:39:12;;;;;;;;;;;;;;;10.01;90.40;99673.00;4948197;28;19974;-72
2023/03/24 05:41:49;;;;;;;;;;;;;;;10.08;90.30;99673.41;4959514;28;20726;-74
2023/03/24 05:44:15;;;;;;;;;;;;;;;10.06;90.30;99670.25;4964576;28;19941;-72
2023/03/24 05:46:45;;;;;;;;;;;;;;;10.07;90.40;99658.44;4965494;28;19947;-71
2023/03/24 05:49:10;;;;;;;;;;;;;;;10.04;90.57;99667.06;4947235;28;19959;-73
2023/03/24 05:51:39;;;;;;;;;;;;;;;10.07;90.57;99671.03;4959119;28;19937;-73
2023/03/24 05:54:06;;;;;;;;;;;;;;;10.10;90.58;99660.56;4961408;28;20462;-72
2023/03/24 05:56:54;;;;;;;;;;;;;;;10.06;90.69;99664.09;4962100;28;19932;-73
2023/03/24 05:59:21;;;;;;;;;;;;;;;10.09;90.80;99656.31;4945489;28;19957;-72
2023/03/24 06:02:14;;;;;;;;;;;;;;;10.09;90.89;99652.81;4967439;28;19932;-72
2023/03/24 06:04:47;;;;;;;;;;;;;;;10.12;90.82;99645.00;4962418;28;20013;-72
2023/03/24 06:07:21;;;;;;;;;;;;;;;10.14;90.78;99639.34;4944509;28;20426;-72
2023/03/24 06:09:49;;;;;;;;;;;;;;;10.17;90.76;99643.34;4962692;28;19993;-72
2023/03/24 06:12:16;;;;;;;;;;;;;;;10.13;90.83;99632.41;4969786;28;19961;-73
2023/03/24 06:14:52;;;;;;;;;;;;;;;10.17;90.86;99627.28;4940520;28;19967;-73
2023/03/24 06:17:20;;;;;;;;;;;;;;;10.17;91.10;99627.28;4965262;28;19938;-73
2023/03/24 06:19:52;;;;;;;;;;;;;;;10.16;91.26;99623.81;4982795;28;19990;-73
2023/03/24 06:22:31;;;;;;;;;;;;;;;10.16;91.28;99631.84;4961720;28;19939;-73
2023/03/24 06:24:57;;;;;;;;;;;;;;;10.23;91.01;99631.47;4962711;28;19943;-72
2023/03/24 06:27:29;;;;;;;;;;;;;;;10.21;91.06;99629.06;4950992;28;19972;-72
2023/03/24 06:29:58;;;;;;;;;;;;;;;10.23;91.16;99636.81;4947777;28;20368;-71
2023/03/24 06:32:25;;;;;;;;;;;;;;;10.27;91.12;99633.28;4946537;28;19979;-71
2023/03/24 06:34:52;;;;;;;;;;;;;;;10.32;90.85;99635.88;4931503;28;19991;-73
2023/03/24 06:37:53;;;;;;;;;;;;;;;10.31;90.90;99641.53;4962967;28;19961;-73
2023/03/24 06:40:23;;;;;;;;;;;;;;;10.33;91.18;99647.38;4947470;28;20153;-72
2023/03/24 06:42:54;;;;;;;;;;;;;;;10.37;90.72;99643.81;4931254;28;19939;-73
2023/03/24 06:45:19;;;;;;;;;;;;;;;10.49;90.35;99655.91;4927499;28;19937;-74
2023/03/24 06:47:47;;;;;;;;;;;;;;;10.45;90.44;99653.03;4962926;28;19996;-74
2023/03/24 06:50:13;;;;;;;;;;;;;;;10.46;90.54;99654.63;4959912;28;20415;-73
2023/03/24 06:52:39;;;;;;;;;;;;;;;10.51;90.49;99656.44;4948866;28;19934;-73
2023/03/24 06:55:07;;;;;;;;;;;;;;;10.55;90.14;99655.53;4944869;28;19955;-73
2023/03/24 06:57:33;;;;;;;;;;;;;;;10.59;90.09;99667.25;4946331;28;20449;-73
2023/03/24 07:00:18;;;;;;;;;;;;;;;10.70;89.67;99664.38;4959567;28;19956;-74
2023/03/24 07:02:55;;;;;;;;;;;;;;;10.82;88.93;99653.97;4940895;28;19986;-73
2023/03/24 07:05:21;;;;;;;;;;;;;;;10.83;89.30;99663.59;4959518;28;19946;-74
2023/03/24 07:07:46;;;;;;;;;;;;;;;10.81;89.64;99673.81;4982050;28;20434;-72
2023/03/24 07:10:38;;;;;;;;;;;;;;;10.73;89.72;99672.63;4961203;28;19942;-74
2023/03/24 07:13:04;;;;;;;;;;;;;;;10.74;89.84;99676.09;4946290;28;20011;-73
2023/03/24 07:15:32;;;;;;;;;;;;;;;10.74;89.12;99686.78;4953020;28;19942;-73
2023/03/24 07:17:58;;;;;;;;;;;;;;;10.69;89.83;99695.72;4946448;28;19960;-73
2023/03/24 07:20:37;;;;;;;;;;;;;;;10.63;90.02;99711.09;4932564;28;19978;-73
2023/03/24 07:23:10;;;;;;;;;;;;;;;10.53;89.53;99711.25;4943700;28;20023;-73
2023/03/24 07:25:52;;;;;;;;;;;;;;;10.44;87.91;99723.72;4962802;28;19937;-75
2023/03/24 07:28:36;;;;;;;;;;;;;;;10.41;88.52;99735.00;4961551;28;19952;-72
2023/03/24 07:31:03;;;;;;;;;;;;;;;10.52;88.44;99741.78;4942515;28;19949;-73
2023/03/24 07:33:28;;;;;;;;;;;;;;;10.61;87.83;99742.69;4977177;28;19940;-73
2023/03/24 07:35:56;;;;;;;;;;;;;;;10.62;86.64;99746.97;4926025;28;19930;-73
2023/03/24 07:38:21;;;;;;;;;;;;;;;10.58;86.93;99754.00;4943195;28;19954;-73
2023/03/24 07:40:49;;;;;;;;;;;;;;;10.62;87.42;99763.03;4950921;28;19936;-73
2023/03/24 07:43:15;;;;;;;;;;;;;;;10.67;87.75;99770.19;4947946;28;19936;-73
2023/03/24 07:46:02;;;;;;;;;;;;;;;10.76;87.64;99773.78;4953260;28;19934;-71
2023/03/24 07:48:27;;;;;;;;;;;;;;;10.79;87.28;99769.72;4938948;28;19963;-74
2023/03/24 07:50:53;;;;;;;;;;;;;;;10.75;87.02;99776.75;4944718;28;19982;-74
2023/03/24 07:53:44;;;;;;;;;;;;;;;10.77;85.23;99790.63;4944576;28;19950;-74
2023/03/24 07:56:11;;;;;;;;;;;;;;;10.63;85.82;99807.47;4958688;28;20013;-73
2023/03/24 07:58:47;;;;;;;;;;;;;;;10.47;84.10;99784.69;4960548;28;20022;-72
2023/03/24 08:01:21;;;;;;;;;;;;;;;10.38;82.16;99810.53;4929377;28;19922;-73
2023/03/24 08:03:53;;;;;;;;;;;;;;;10.39;84.21;99822.84;4933340;29;19944;-73
2023/03/24 08:06:51;;;;;;;;;;;;;;;10.51;83.19;99820.53;4959325;28;19942;-72
2023/03/24 08:09:17;;;;;;;;;;;;;;;10.39;82.58;99822.84;4937827;28;20334;-73
2023/03/24 08:11:42;;;;;;;;;;;;;;;10.41;82.93;99831.38;4962072;28;19937;-73
2023/03/24 08:14:07;;;;;;;;;;;;;;;10.59;81.68;99841.28;4957986;28;19955;-72
2023/03/24 08:16:33;;;;;;;;;;;;;;;10.88;80.50;99834.91;4961630;28;19943;-74
2023/03/24 08:18:58;;;;;;;;;;;;;;;10.92;81.87;99846.66;4960002;28;19952;-73
2023/03/24 08:21:24;;;;;;;;;;;;;;;10.97;78.35;99846.53;4946547;28;19931;-73
2023/03/24 08:23:49;;;;;;;;;;;;;;;10.92;76.49;99847.44;4954769;28;20036;-73
2023/03/24 08:26:15;;;;;;;;;;;;;;;11.00;77.81;99854.00;4955760;28;19947;-71
2023/03/24 08:28:41;;;;;;;;;;;;;;;11.31;76.84;99873.06;4962564;28;20336;-72
2023/03/24 08:31:06;;;;;;;;;;;;;;;11.32;75.79;99876.53;4961028;28;20046;-73
2023/03/24 08:33:32;;;;;;;;;;;;;;;10.93;76.42;99885.75;4952228;28;19950;-73
2023/03/24 08:35:59;;;;;;;;;;;;;;;10.88;77.27;99888.50;4947703;28;19936;-73
2023/03/24 08:38:29;;;;;;;;;;;;;;;11.03;77.26;99893.59;4956293;28;19984;-72
2023/03/24 08:40:57;;;;;;;;;;;;;;;11.02;77.48;99899.25;4944620;28;19993;-73
2023/03/24 08:43:23;;;;;;;;;;;;;;;10.84;75.33;99901.69;4944300;28;19984;-73
2023/03/24 08:45:49;;;;;;;;;;;;;;;10.78;74.87;99905.53;4959809;28;19945;-74
2023/03/24 08:48:14;;;;;;;;;;;;;;;10.79;76.63;99911.69;4979528;28;19998;-74
2023/03/24 08:50:40;;;;;;;;;;;;;;;10.87;75.46;99908.34;4960471;28;20282;-73
2023/03/24 08:53:06;;;;;;;;;;;;;;;10.91;74.13;99906.69;4976508;28;19930;-72
2023/03/24 08:55:32;;;;;;;;;;;;;;;10.88;75.16;99916.06;4956780;28;19990;-73
2023/03/24 08:57:57;;;;;;;;;;;;;;;10.83;76.27;99916.13;4940853;28;19957;-73
2023/03/24 09:00:23;;;;;;;;;;;;;;;10.89;75.46;99923.00;4959145;28;20056;-73
2023/03/24 09:02:50;;;;;;;;;;;;;;;11.12;75.04;99925.91;4960619;28;19982;-73
2023/03/24 09:05:20;;;;;;;;;;;;;;;11.37;73.79;99903.22;4946078;28;19995;-73
2023/03/24 09:07:45;;;;;;;;;;;;;;;11.15;71.65;99904.66;4958247;28;19946;-74
2023/03/24 09:10:11;;;;;;;;;;;;;;;11.10;72.27;99928.06;4943080;28;19946;-73
2023/03/24 09:12:38;;;;;;;;;;;;;;;11.09;71.87;99937.19;4943439;28;20326;-73
2023/03/24 09:15:05;;;;;;;;;;;;;;;11.18;71.84;99941.59;4960838;28;19947;-74
2023/03/24 09:17:31;;;;;;;;;;;;;;;11.26;73.28;99956.22;4961788;28;20384;-75
2023/03/24 09:19:57;;;;;;;;;;;;;;;11.33;71.49;99948.59;4959368;28;19970;-75
2023/03/24 09:22:22;;;;;;;;;;;;;;;11.37;71.75;99944.22;4957842;28;20663;-76
2023/03/24 09:24:48;;;;;;;;;;;;;;;11.36;71.02;99956.03;4963747;28;19938;-74
2023/03/24 09:27:14;;;;;;;;;;;;;;;11.48;71.63;99939.50;4946243;28;20018;-74
2023/03/24 09:29:39;;;;;;;;;;;;;;;11.42;72.49;99962.13;4948266;28;20051;-74
2023/03/24 09:32:05;;;;;;;;;;;;;;;11.34;71.38;99955.53;4946489;28;20372;-74
2023/03/24 09:34:32;;;;;;;;;;;;;;;11.09;70.58;99962.09;4947047;28;19953;-73
2023/03/24 09:37:01;;;;;;;;;;;;;;;11.34;70.52;99960.13;4948283;28;20394;-74
2023/03/24 09:39:26;;;;;;;;;;;;;;;11.62;69.29;99967.13;4960549;28;19959;-74
2023/03/24 09:41:54;;;;;;;;;;;;;;;11.89;69.81;99981.72;4946625;28;20472;-74
2023/03/24 09:44:26;;;;;;;;;;;;;;;11.79;69.65;99979.19;4960464;28;19939;-73
2023/03/24 09:46:55;;;;;;;;;;;;;;;11.34;67.51;99971.63;4958608;28;19946;-73
2023/03/24 09:49:22;;;;;;;;;;;;;;;11.10;68.56;99982.44;4957514;28;19970;-74
2023/03/24 09:51:48;;;;;;;;;;;;;;;10.98;69.72;99978.63;4944902;28;20027;-74
2023/03/24 09:54:21;;;;;;;;;;;;;;;11.20;68.27;99984.97;4969957;28;20439;-75
2023/03/24 09:56:47;;;;;;;;;;;;;;;11.53;68.13;99990.38;4960709;28;19938;-74
2023/03/24 09:59:20;;;;;;;;;;;;;;;11.68;69.16;100003.50;4958128;28;19962;-73
2023/03/24 10:01:46;;;;;;;;;;;;;;;11.51;67.73;100000.56;4946909;28;19936;-74
2023/03/24 10:04:14;;;;;;;;;;;;;;;11.29;67.63;99989.69;4960240;28;20390;-74
2023/03/24 10:06:40;;;;;;;;;;;;;;;11.09;67.99;100002.28;4960069;28;19956;-74
2023/03/24 10:09:26;;;;;;;;;;;;;;;11.01;69.45;100011.00;4964649;28;19967;-74
2023/03/24 10:12:16;;;;;;;;;;;;;;;11.06;69.05;100005.56;4963563;28;19956;-75
2023/03/24 10:14:41;;;;;;;;;;;;;;;10.92;69.34;100012.75;4971202;28;19935;-73
2023/03/24 10:17:10;;;;;;;;;;;;;;;11.06;68.51;100008.25;4948459;28;20387;-74
2023/03/24 10:19:35;;;;;;;;;;;;;;;11.24;68.99;100000.47;4944115;28;19955;-74
2023/03/24 10:22:01;;;;;;;;;;;;;;;11.42;67.51;100010.38;4962925;28;19945;-74
2023/03/24 10:24:50;;;;;;;;;;;;;;;11.48;67.21;100001.97;4930652;28;20654;-75
2023/03/24 10:27:30;;;;;;;;;;;;;;;11.45;66.59;100015.16;4958526;28;19942;-73
2023/03/24 10:30:05;;;;;;;;;;;;;;;11.51;65.85;100007.81;4960683;28;20338;-73
2023/03/24 10:32:33;;;;;;;;;;;;;;;11.77;65.56;100012.47;4946700;28;19950;-74
2023/03/24 10:35:06;;;;;;;;;;;;;;;12.13;64.64;100000.34;4965252;28;19944;-78
2023/03/24 10:37:31;;;;;;;;;;;;;;;12.14;64.29;100004.59;4982369;28;19958;-74
2023/03/24 10:39:57;;;;;;;;;;;;;;;12.36;65.13;100011.97;4943383;28;20447;-74
2023/03/24 10:42:24;;;;;;;;;;;;;;;12.41;63.67;100011.88;4949287;28;19950;-75
2023/03/24 10:44:51;;;;;;;;;;;;;;;12.77;62.04;100012.72;4957252;28;19936;-74
2023/03/24 10:47:27;;;;;;;;;;;;;;;13.13;61.15;100009.22;4959481;28;20309;-75
2023/03/24 10:49:55;;;;;;;;;;;;;;;13.21;62.11;100008.56;4960805;28;19991;-75
2023/03/24 10:52:23;;;;;;;;;;;;;;;12.82;61.21;100009.91;4940461;28;19940;-75
2023/03/24 10:54:57;;;;;;;;;;;;;;;13.01;62.29;100012.47;4963859;28;20021;-74
2023/03/24 10:57:23;;;;;;;;;;;;;;;13.13;61.00;100012.69;4942968;28;19935;-74
2023/03/24 11:00:16;;;;;;;;;;;;;;;13.23;62.18;100002.88;4963295;28;19942;-74
2023/03/24 11:02:42;;;;;;;;;;;;;;;12.51;61.13;100025.06;4941212;28;20364;-73
2023/03/24 11:05:15;;;;;;;;;;;;;;;12.10;62.54;100025.88;4959161;28;19939;-74
2023/03/24 11:07:43;;;;;;;;;;;;;;;11.86;64.79;100030.59;4958985;28;19955;-75
2023/03/24 11:10:08;;;;;;;;;;;;;;;11.84;63.72;100044.28;4943421;28;19948;-76
2023/03/24 11:12:41;;;;;;;;;;;;;;;11.93;65.22;100034.50;4977058;28;20025;-75
2023/03/24 11:15:16;;;;;;;;;;;;;;;11.96;64.04;100047.31;4945181;28;20298;-76
2023/03/24 11:17:42;;;;;;;;;;;;;;;12.50;62.20;100042.28;4941802;28;20342;-73
2023/03/24 11:20:16;;;;;;;;;;;;;;;13.13;63.33;100042.28;4949744;28;19965;-76
2023/03/24 11:22:43;;;;;;;;;;;;;;;13.75;60.88;100054.31;4962732;28;19946;-74
2023/03/24 11:25:11;;;;;;;;;;;;;;;14.41;58.13;100045.28;4947173;28;19953;-75
2023/03/24 11:27:42;;;;;;;;;;;;;;;13.97;56.53;100045.44;4959123;28;19942;-75
2023/03/24 11:30:11;;;;;;;;;;;;;;;13.99;56.52;100056.69;4939712;28;19955;-73
2023/03/24 11:32:44;;;;;;;;;;;;;;;13.90;58.35;100052.06;4984214;28;19947;-75
2023/03/24 11:35:16;;;;;;;;;;;;;;;13.42;56.74;100048.41;4941446;28;19942;-73
2023/03/24 11:37:43;;;;;;;;;;;;;;;13.12;57.87;100056.03;4939598;28;19998;-74
2023/03/24 11:40:11;;;;;;;;;;;;;;;12.80;55.66;100059.66;4945668;28;19946;-74
2023/03/24 11:42:49;;;;;;;;;;;;;;;12.56;55.96;100065.28;4961971;28;20032;-74
2023/03/24 11:45:20;;;;;;;;;;;;;;;13.11;56.04;100065.19;4942684;28;20034;-73
2023/03/24 11:47:46;;;;;;;;;;;;;;;13.48;57.48;100057.91;4959017;28;19955;-74
2023/03/24 11:50:16;;;;;;;;;;;;;;;13.35;56.85;100064.97;4963043;28;20062;-72
2023/03/24 11:52:41;;;;;;;;;;;;;;;13.53;59.10;100058.59;4959372;28;20442;-74
2023/03/24 11:55:18;;;;;;;;;;;;;;;13.17;56.43;100061.28;4960841;28;19936;-72
2023/03/24 11:58:07;;;;;;;;;;;;;;;13.39;57.55;100066.72;4942918;28;19933;-73
2023/03/24 12:00:35;;;;;;;;;;;;;;;13.83;54.99;100065.16;4958897;28;19946;-74
2023/03/24 12:03:14;;;;;;;;;;;;;;;14.00;55.37;100059.06;4949170;28;20020;-74
2023/03/24 12:05:44;;;;;;;;;;;;;;;14.17;54.58;100059.16;4957538;28;19957;-73
2023/03/24 12:08:16;;;;;;;;;;;;;;;14.27;54.35;100054.59;4955887;28;20021;-75
2023/03/24 12:10:47;;;;;;;;;;;;;;;14.52;52.17;100059.31;4925276;28;20444;-74
2023/03/24 12:13:16;;;;;;;;;;;;;;;14.35;52.72;100061.91;4943521;28;20874;-74
2023/03/24 12:16:00;;;;;;;;;;;;;;;14.45;50.33;100056.25;4958370;28;19938;-73
2023/03/24 12:18:46;;;;;;;;;;;;;;;14.07;52.09;100064.78;4960616;28;20139;-72
2023/03/24 12:21:25;;;;;;;;;;;;;;;14.46;50.31;100053.28;4962467;28;20036;-72
2023/03/24 12:23:50;;;;;;;;;;;;;;;14.76;49.69;100048.13;4961740;28;19941;-73
2023/03/24 12:26:21;;;;;;;;;;;;;;;14.61;51.16;100054.75;4945144;28;19948;-74
2023/03/24 12:28:55;;;;;;;;;;;;;;;15.38;48.72;100055.97;4957461;28;19964;-75
2023/03/24 12:31:36;;;;;;;;;;;;;;;16.00;48.26;100052.88;4959217;28;20404;-76
2023/03/24 12:34:32;;;;;;;;;;;;;;;14.72;46.77;100055.25;4942456;28;19960;-71
2023/03/24 12:36:58;;;;;;;;;;;;;;;13.63;50.27;100049.50;4967085;28;19945;-74
2023/03/24 12:39:26;;;;;;;;;;;;;;;13.34;50.41;100060.66;4960445;28;19957;-75
2023/03/24 12:42:03;;;;;;;;;;;;;;;14.83;49.40;100055.75;4963482;28;20038;-73
2023/03/24 12:44:28;;;;;;;;;;;;;;;15.65;47.00;100056.78;4957154;28;19945;-74
2023/03/24 12:47:13;;;;;;;;;;;;;;;15.81;45.15;100049.75;4961133;28;19950;-75
2023/03/24 12:49:41;;;;;;;;;;;;;;;14.91;49.47;100055.00;4939447;28;21231;-73
2023/03/24 12:52:22;;;;;;;;;;;;;;;14.30;47.99;100049.41;4961070;28;19940;-71
2023/03/24 12:55:03;;;;;;;;;;;;;;;14.23;48.86;100067.91;4957999;28;20015;-74
2023/03/24 12:57:36;;;;;;;;;;;;;;;13.65;49.94;100068.81;4961914;28;19949;-75
2023/03/24 13:00:07;;;;;;;;;;;;;;;13.13;51.35;100068.38;4945142;28;19945;-72
2023/03/24 13:02:46;;;;;;;;;;;;;;;12.94;52.00;100067.72;4963337;28;20029;-73
2023/03/24 13:05:19;;;;;;;;;;;;;;;13.11;52.26;100076.75;4959156;28;19957;-72
2023/03/24 13:07:52;;;;;;;;;;;;;;;13.24;52.23;100075.16;4959532;28;19953;-73
2023/03/24 13:10:22;;;;;;;;;;;;;;;13.30;53.43;100073.94;4957144;28;19941;-72